createdAt,value
2018-04-27T00:00:06.559Z,0
2018-04-27T00:00:32.746Z,0
2018-04-27T00:00:58.933Z,0
2018-04-27T00:01:25.152Z,0
2018-04-27T00:01:51.342Z,0
2018-04-27T00:02:17.525Z,0
2018-04-27T00:02:43.717Z,0
2018-04-27T00:03:09.944Z,0
2018-04-27T00:03:36.122Z,0
2018-04-27T00:04:02.343Z,0
2018-04-27T00:04:28.532Z,0
2018-04-27T00:04:54.716Z,0
2018-04-27T00:05:20.933Z,0
2018-04-27T00:05:47.124Z,0
2018-04-27T00:06:13.307Z,0
2018-04-27T00:06:39.501Z,0
2018-04-27T00:07:05.686Z,0
2018-04-27T00:07:31.871Z,0
2018-04-27T00:07:58.058Z,0
2018-04-27T00:08:24.256Z,0
2018-04-27T00:08:50.498Z,0
2018-04-27T00:09:16.686Z,0
2018-04-27T00:09:42.909Z,0
2018-04-27T00:10:09.097Z,0
2018-04-27T00:10:35.281Z,0
2018-04-27T00:11:01.468Z,0
2018-04-27T00:11:27.659Z,0
2018-04-27T00:11:53.852Z,0
2018-04-27T00:12:20.093Z,0
2018-04-27T00:12:46.297Z,0
2018-04-27T00:13:12.498Z,0
2018-04-27T00:13:38.716Z,0
2018-04-27T00:14:04.910Z,0
2018-04-27T00:14:31.139Z,0
2018-04-27T00:14:57.322Z,0
2018-04-27T00:15:23.591Z,0
2018-04-27T00:15:49.692Z,0
2018-04-27T00:16:15.878Z,0
2018-04-27T00:16:42.105Z,0
2018-04-27T00:17:08.292Z,0
2018-04-27T00:17:34.481Z,0
2018-04-27T00:18:00.669Z,0
2018-04-27T00:18:26.887Z,0
2018-04-27T00:18:53.079Z,0
2018-04-27T00:19:19.261Z,0
2018-04-27T00:19:45.453Z,0
2018-04-27T00:20:11.674Z,0
2018-04-27T00:20:37.861Z,0
2018-04-27T00:21:04.042Z,0
2018-04-27T00:21:30.229Z,0
2018-04-27T00:21:56.419Z,0
2018-04-27T00:22:22.604Z,0
2018-04-27T00:22:48.800Z,0
2018-04-27T00:23:14.993Z,0
2018-04-27T00:23:41.177Z,0
2018-04-27T00:24:07.377Z,0
2018-04-27T00:24:33.581Z,0
2018-04-27T00:24:59.769Z,0
2018-04-27T00:25:25.956Z,0
2018-04-27T00:25:52.143Z,0
2018-04-27T00:26:18.337Z,0
2018-04-27T00:26:44.553Z,0
2018-04-27T00:27:10.742Z,0
2018-04-27T00:27:36.929Z,0
2018-04-27T00:28:03.121Z,0
2018-04-27T00:28:29.311Z,0
2018-04-27T00:28:55.502Z,0
2018-04-27T00:29:21.683Z,0
2018-04-27T00:29:47.881Z,0
2018-04-27T00:30:14.072Z,0
2018-04-27T00:30:40.265Z,0
2018-04-27T00:31:06.483Z,0
2018-04-27T00:31:32.681Z,0
2018-04-27T00:31:58.868Z,0
2018-04-27T00:32:25.049Z,0
2018-04-27T00:32:51.240Z,0
2018-04-27T00:33:17.427Z,0
2018-04-27T00:33:43.612Z,0
2018-04-27T00:34:09.805Z,0
2018-04-27T00:34:35.997Z,0
2018-04-27T00:35:02.183Z,0
2018-04-27T00:35:28.369Z,0
2018-04-27T00:35:54.557Z,0
2018-04-27T00:36:20.745Z,0
2018-04-27T00:36:46.931Z,0
2018-04-27T00:37:13.115Z,0
2018-04-27T00:37:39.305Z,0
2018-04-27T00:38:05.494Z,0
2018-04-27T00:38:31.675Z,0
2018-04-27T00:38:57.859Z,0
2018-04-27T00:39:24.049Z,0
2018-04-27T00:39:50.235Z,0
2018-04-27T00:40:16.464Z,0
2018-04-27T00:40:42.650Z,0
2018-04-27T00:41:08.835Z,0
2018-04-27T00:41:35.023Z,0
2018-04-27T00:42:01.216Z,0
2018-04-27T00:42:27.407Z,0
2018-04-27T00:42:53.598Z,0
2018-04-27T00:43:19.780Z,0
2018-04-27T00:43:45.972Z,0
2018-04-27T00:44:12.159Z,0
2018-04-27T00:44:38.355Z,0
2018-04-27T00:45:04.566Z,0
2018-04-27T00:45:30.793Z,0
2018-04-27T00:45:56.984Z,0
2018-04-27T00:46:23.167Z,0
2018-04-27T00:46:49.353Z,0
2018-04-27T00:47:15.542Z,0
2018-04-27T00:47:41.729Z,0
2018-04-27T00:48:07.919Z,0
2018-04-27T00:48:34.111Z,0
2018-04-27T00:49:00.362Z,0
2018-04-27T00:49:26.552Z,0
2018-04-27T00:49:52.744Z,0
2018-04-27T00:50:18.926Z,0
2018-04-27T00:50:45.112Z,0
2018-04-27T00:51:11.299Z,0
2018-04-27T00:51:37.494Z,0
2018-04-27T00:52:03.685Z,0
2018-04-27T00:52:29.867Z,0
2018-04-27T00:52:56.098Z,0
2018-04-27T00:53:22.279Z,0
2018-04-27T00:53:48.459Z,0
2018-04-27T00:54:14.649Z,0
2018-04-27T00:54:40.832Z,0
2018-04-27T00:55:07.060Z,0
2018-04-27T00:55:33.240Z,0
2018-04-27T00:55:59.435Z,0
2018-04-27T00:56:25.654Z,0
2018-04-27T00:56:51.844Z,0
2018-04-27T00:57:18.043Z,0
2018-04-27T00:57:44.223Z,0
2018-04-27T00:58:10.407Z,0
2018-04-27T00:58:36.592Z,0
2018-04-27T00:59:02.782Z,0
2018-04-27T00:59:29.003Z,0
2018-04-27T00:59:55.190Z,0
2018-04-27T01:00:21.407Z,0
2018-04-27T01:00:47.663Z,0
2018-04-27T01:01:13.848Z,0
2018-04-27T01:01:40.068Z,0
2018-04-27T01:02:06.259Z,0
2018-04-27T01:02:32.487Z,0
2018-04-27T01:02:58.698Z,0
2018-04-27T01:03:24.893Z,0
2018-04-27T01:03:51.079Z,0
2018-04-27T01:04:17.266Z,0
2018-04-27T01:04:43.451Z,0
2018-04-27T01:05:09.636Z,0
2018-04-27T01:05:35.819Z,0
2018-04-27T01:06:02.014Z,0
2018-04-27T01:06:28.265Z,0
2018-04-27T01:06:54.458Z,0
2018-04-27T01:07:20.644Z,0
2018-04-27T01:07:46.828Z,0
2018-04-27T01:08:13.024Z,0
2018-04-27T01:08:39.215Z,0
2018-04-27T01:09:05.397Z,0
2018-04-27T01:09:31.591Z,0
2018-04-27T01:09:57.775Z,0
2018-04-27T01:10:24.051Z,0
2018-04-27T01:10:50.237Z,0
2018-04-27T01:11:16.433Z,0
2018-04-27T01:11:42.625Z,0
2018-04-27T01:12:08.811Z,0
2018-04-27T01:12:35.006Z,0
2018-04-27T01:13:01.190Z,0
2018-04-27T01:13:27.380Z,0
2018-04-27T01:13:53.645Z,0
2018-04-27T01:14:19.834Z,0
2018-04-27T01:14:46.021Z,0
2018-04-27T01:15:12.214Z,0
2018-04-27T01:15:38.398Z,0
2018-04-27T01:16:04.595Z,0
2018-04-27T01:16:30.815Z,0
2018-04-27T01:16:57.000Z,0
2018-04-27T01:17:23.191Z,0
2018-04-27T01:17:49.377Z,0
2018-04-27T01:18:15.561Z,0
2018-04-27T01:18:41.754Z,0
2018-04-27T01:19:07.936Z,0
2018-04-27T01:19:34.124Z,0
2018-04-27T01:20:00.321Z,0
2018-04-27T01:20:26.498Z,0
2018-04-27T01:20:52.684Z,0
2018-04-27T01:21:18.874Z,0
2018-04-27T01:21:45.065Z,0
2018-04-27T01:22:11.309Z,0
2018-04-27T01:22:37.525Z,0
2018-04-27T01:23:03.718Z,0
2018-04-27T01:23:29.905Z,0
2018-04-27T01:23:56.099Z,0
2018-04-27T01:24:22.315Z,0
2018-04-27T01:24:48.499Z,0
2018-04-27T01:25:14.724Z,0
2018-04-27T01:25:40.907Z,0
2018-04-27T01:26:07.095Z,0
2018-04-27T01:26:33.280Z,0
2018-04-27T01:26:59.504Z,0
2018-04-27T01:27:25.727Z,0
2018-04-27T01:27:51.914Z,0
2018-04-27T01:28:18.112Z,0
2018-04-27T01:28:44.294Z,0
2018-04-27T01:29:10.477Z,0
2018-04-27T01:29:36.702Z,0
2018-04-27T01:30:02.894Z,0
2018-04-27T01:30:29.081Z,0
2018-04-27T01:30:55.272Z,0
2018-04-27T01:31:21.456Z,0
2018-04-27T01:31:47.681Z,0
2018-04-27T01:32:13.900Z,0
2018-04-27T01:32:40.091Z,0
2018-04-27T01:33:06.279Z,0
2018-04-27T01:33:32.472Z,0
2018-04-27T01:33:58.663Z,0
2018-04-27T01:34:24.846Z,0
2018-04-27T01:34:51.030Z,0
2018-04-27T01:35:17.235Z,0
2018-04-27T01:35:43.407Z,0
2018-04-27T01:36:09.595Z,0
2018-04-27T01:36:35.784Z,0
2018-04-27T01:37:01.973Z,0
2018-04-27T01:37:28.157Z,0
2018-04-27T01:37:54.384Z,0
2018-04-27T01:38:20.605Z,0
2018-04-27T01:38:46.787Z,0
2018-04-27T01:39:13.007Z,0
2018-04-27T01:39:39.228Z,0
2018-04-27T01:40:05.445Z,0
2018-04-27T01:40:31.676Z,0
2018-04-27T01:40:57.860Z,0
2018-04-27T01:41:24.052Z,0
2018-04-27T01:41:50.238Z,0
2018-04-27T01:42:16.453Z,0
2018-04-27T01:42:42.640Z,0
2018-04-27T01:43:08.826Z,0
2018-04-27T01:43:35.009Z,0
2018-04-27T01:44:01.196Z,0
2018-04-27T01:44:27.382Z,0
2018-04-27T01:44:53.570Z,0
2018-04-27T01:45:19.760Z,0
2018-04-27T01:45:45.941Z,0
2018-04-27T01:46:12.128Z,0
2018-04-27T01:46:38.318Z,0
2018-04-27T01:47:04.540Z,0
2018-04-27T01:47:30.721Z,0
2018-04-27T01:47:56.912Z,0
2018-04-27T01:48:23.130Z,0
2018-04-27T01:48:49.353Z,0
2018-04-27T01:49:15.582Z,0
2018-04-27T01:49:41.757Z,0
2018-04-27T01:50:07.953Z,0
2018-04-27T01:50:34.144Z,0
2018-04-27T01:51:00.330Z,0
2018-04-27T01:51:26.518Z,0
2018-04-27T01:51:52.706Z,0
2018-04-27T01:52:18.898Z,0
2018-04-27T01:52:45.090Z,0
2018-04-27T01:53:11.283Z,0
2018-04-27T01:53:37.499Z,0
2018-04-27T01:54:03.685Z,0
2018-04-27T01:54:29.875Z,0
2018-04-27T01:54:56.057Z,0
2018-04-27T01:55:22.246Z,0
2018-04-27T01:55:48.428Z,0
2018-04-27T01:56:14.615Z,0
2018-04-27T01:56:40.802Z,0
2018-04-27T01:57:06.987Z,0
2018-04-27T01:57:33.179Z,0
2018-04-27T01:57:59.360Z,0
2018-04-27T01:58:25.555Z,0
2018-04-27T01:58:51.742Z,0
2018-04-27T01:59:17.936Z,0
2018-04-27T01:59:44.119Z,0
2018-04-27T02:00:10.333Z,0
2018-04-27T02:00:36.527Z,0
2018-04-27T02:01:02.754Z,0
2018-04-27T02:01:28.929Z,0
2018-04-27T02:01:55.149Z,0
2018-04-27T02:02:21.342Z,0
2018-04-27T02:02:47.527Z,0
2018-04-27T02:03:13.715Z,0
2018-04-27T02:03:39.905Z,0
2018-04-27T02:04:06.096Z,0
2018-04-27T02:04:32.340Z,0
2018-04-27T02:04:58.534Z,0
2018-04-27T02:05:24.718Z,0
2018-04-27T02:05:50.899Z,0
2018-04-27T02:06:17.091Z,0
2018-04-27T02:06:43.275Z,0
2018-04-27T02:07:09.498Z,0
2018-04-27T02:07:35.684Z,0
2018-04-27T02:08:01.869Z,0
2018-04-27T02:08:28.089Z,0
2018-04-27T02:08:54.288Z,0
2018-04-27T02:09:20.468Z,0
2018-04-27T02:09:46.639Z,0
2018-04-27T02:10:12.796Z,0
2018-04-27T02:10:38.958Z,0
2018-04-27T02:11:05.127Z,0
2018-04-27T02:11:31.309Z,0
2018-04-27T02:11:57.490Z,0
2018-04-27T02:12:23.637Z,0
2018-04-27T02:12:49.786Z,0
2018-04-27T02:13:15.971Z,0
2018-04-27T02:13:42.080Z,0
2018-04-27T02:14:08.205Z,0
2018-04-27T02:14:34.346Z,0
2018-04-27T02:15:00.485Z,0
2018-04-27T02:15:26.624Z,0
2018-04-27T02:15:52.756Z,0
2018-04-27T02:16:18.902Z,0
2018-04-27T02:16:45.058Z,0
2018-04-27T02:17:11.195Z,0
2018-04-27T02:17:37.377Z,0
2018-04-27T02:18:03.523Z,0
2018-04-27T02:18:29.667Z,0
2018-04-27T02:18:55.816Z,0
2018-04-27T02:19:21.960Z,0
2018-04-27T02:19:48.095Z,0
2018-04-27T02:20:14.227Z,0
2018-04-27T02:20:40.370Z,0
2018-04-27T02:21:06.513Z,0
2018-04-27T02:21:32.649Z,0
2018-04-27T02:21:58.778Z,0
2018-04-27T02:22:24.920Z,0
2018-04-27T02:22:51.058Z,0
2018-04-27T02:23:17.195Z,0
2018-04-27T02:23:43.333Z,0
2018-04-27T02:24:09.464Z,0
2018-04-27T02:24:35.601Z,0
2018-04-27T02:25:01.792Z,0
2018-04-27T02:25:27.921Z,0
2018-04-27T02:25:54.085Z,0
2018-04-27T02:26:20.219Z,0
2018-04-27T02:26:46.357Z,0
2018-04-27T02:27:12.497Z,0
2018-04-27T02:27:38.629Z,0
2018-04-27T02:28:04.797Z,0
2018-04-27T02:28:30.922Z,0
2018-04-27T02:28:57.062Z,0
2018-04-27T02:29:23.199Z,0
2018-04-27T02:29:49.412Z,0
2018-04-27T02:30:15.558Z,0
2018-04-27T02:30:41.716Z,0
2018-04-27T02:31:07.866Z,0
2018-04-27T02:31:34.002Z,0
2018-04-27T02:32:00.151Z,0
2018-04-27T02:32:26.306Z,0
2018-04-27T02:32:52.461Z,0
2018-04-27T02:33:18.620Z,0
2018-04-27T02:33:44.785Z,0
2018-04-27T02:34:10.947Z,0
2018-04-27T02:34:37.113Z,0
2018-04-27T02:35:03.295Z,0
2018-04-27T02:35:29.434Z,0
2018-04-27T02:35:55.577Z,0
2018-04-27T02:36:21.760Z,0
2018-04-27T02:36:47.900Z,0
2018-04-27T02:37:14.030Z,0
2018-04-27T02:37:40.176Z,0
2018-04-27T02:38:06.299Z,0
2018-04-27T02:38:32.473Z,0
2018-04-27T02:38:58.624Z,0
2018-04-27T02:39:24.782Z,0
2018-04-27T02:39:50.915Z,0
2018-04-27T02:40:17.049Z,0
2018-04-27T02:40:43.210Z,0
2018-04-27T02:41:09.398Z,0
2018-04-27T02:41:35.557Z,0
2018-04-27T02:42:01.734Z,0
2018-04-27T02:42:27.898Z,0
2018-04-27T02:42:54.070Z,0
2018-04-27T02:43:20.232Z,0
2018-04-27T02:43:46.395Z,0
2018-04-27T02:44:12.557Z,0
2018-04-27T02:44:38.720Z,0
2018-04-27T02:45:04.877Z,0
2018-04-27T02:45:31.046Z,0
2018-04-27T02:45:57.252Z,0
2018-04-27T02:46:23.394Z,0
2018-04-27T02:46:49.546Z,0
2018-04-27T02:47:15.744Z,0
2018-04-27T02:47:41.888Z,0
2018-04-27T02:48:08.051Z,0
2018-04-27T02:48:34.233Z,0
2018-04-27T02:49:00.389Z,0
2018-04-27T02:49:26.560Z,0
2018-04-27T02:49:52.695Z,0
2018-04-27T02:50:18.873Z,0
2018-04-27T02:50:45.036Z,0
2018-04-27T02:51:11.195Z,0
2018-04-27T02:51:37.335Z,0
2018-04-27T02:52:03.465Z,0
2018-04-27T02:52:29.646Z,0
2018-04-27T02:52:55.833Z,0
2018-04-27T02:53:21.994Z,0
2018-04-27T02:53:48.132Z,0
2018-04-27T02:54:14.268Z,0
2018-04-27T02:54:40.459Z,0
2018-04-27T02:55:06.626Z,0
2018-04-27T02:55:32.763Z,0
2018-04-27T02:55:58.912Z,0
2018-04-27T02:56:25.051Z,0
2018-04-27T02:56:51.191Z,0
2018-04-27T02:57:17.353Z,0
2018-04-27T02:57:43.522Z,0
2018-04-27T02:58:09.657Z,0
2018-04-27T02:58:35.790Z,0
2018-04-27T02:59:01.987Z,0
2018-04-27T02:59:28.112Z,0
2018-04-27T02:59:54.255Z,0
2018-04-27T03:00:20.394Z,0
2018-04-27T03:00:46.527Z,0
2018-04-27T03:01:12.696Z,0
2018-04-27T03:01:38.855Z,0
2018-04-27T03:02:04.990Z,0
2018-04-27T03:02:31.128Z,0
2018-04-27T03:02:57.295Z,0
2018-04-27T03:03:23.461Z,0
2018-04-27T03:03:49.600Z,0
2018-04-27T03:04:15.789Z,0
2018-04-27T03:04:41.944Z,0
2018-04-27T03:05:08.109Z,0
2018-04-27T03:05:34.254Z,0
2018-04-27T03:06:00.386Z,0
2018-04-27T03:06:26.529Z,0
2018-04-27T03:06:52.712Z,0
2018-04-27T03:07:18.876Z,0
2018-04-27T03:07:45.047Z,0
2018-04-27T03:08:11.219Z,0
2018-04-27T03:08:37.359Z,0
2018-04-27T03:09:03.524Z,0
2018-04-27T03:09:29.685Z,0
2018-04-27T03:09:55.849Z,0
2018-04-27T03:10:22.030Z,0
2018-04-27T03:10:48.165Z,0
2018-04-27T03:11:14.301Z,0
2018-04-27T03:11:40.461Z,0
2018-04-27T03:12:06.592Z,0
2018-04-27T03:12:32.731Z,0
2018-04-27T03:12:58.903Z,0
2018-04-27T03:13:25.037Z,0
2018-04-27T03:13:51.173Z,0
2018-04-27T03:14:17.349Z,0
2018-04-27T03:14:43.484Z,0
2018-04-27T03:15:09.619Z,0
2018-04-27T03:15:35.814Z,0
2018-04-27T03:16:01.937Z,0
2018-04-27T03:16:28.094Z,0
2018-04-27T03:16:54.260Z,0
2018-04-27T03:17:20.391Z,0
2018-04-27T03:17:46.531Z,0
2018-04-27T03:18:12.664Z,0
2018-04-27T03:18:38.793Z,0
2018-04-27T03:19:04.930Z,0
2018-04-27T03:19:31.069Z,0
2018-04-27T03:19:57.210Z,0
2018-04-27T03:20:23.372Z,0
2018-04-27T03:20:49.510Z,0
2018-04-27T03:21:15.641Z,0
2018-04-27T03:21:41.785Z,0
2018-04-27T03:22:07.941Z,0
2018-04-27T03:22:34.076Z,0
2018-04-27T03:23:00.246Z,0
2018-04-27T03:23:26.432Z,0
2018-04-27T03:23:52.717Z,0
2018-04-27T03:24:18.724Z,0
2018-04-27T03:24:44.859Z,0
2018-04-27T03:25:11.004Z,0
2018-04-27T03:25:37.167Z,0
2018-04-27T03:26:03.330Z,0
2018-04-27T03:26:29.467Z,0
2018-04-27T03:26:55.602Z,0
2018-04-27T03:27:21.735Z,0
2018-04-27T03:27:47.873Z,0
2018-04-27T03:28:14.009Z,0
2018-04-27T03:28:40.178Z,0
2018-04-27T03:29:06.310Z,0
2018-04-27T03:29:32.458Z,0
2018-04-27T03:29:58.606Z,0
2018-04-27T03:30:24.820Z,4
2018-04-27T03:30:51.029Z,4
2018-04-27T03:31:17.190Z,4
2018-04-27T03:31:43.393Z,4
2018-04-27T03:32:09.605Z,0
2018-04-27T03:32:35.788Z,0
2018-04-27T03:33:01.916Z,0
2018-04-27T03:33:28.058Z,0
2018-04-27T03:33:54.212Z,4
2018-04-27T03:34:20.425Z,4
2018-04-27T03:34:46.482Z,4
2018-04-27T03:35:12.624Z,4
2018-04-27T03:35:38.774Z,4
2018-04-27T03:36:04.914Z,0
2018-04-27T03:36:31.046Z,4
2018-04-27T03:36:57.180Z,4
2018-04-27T03:37:23.337Z,4
2018-04-27T03:37:49.476Z,4
2018-04-27T03:38:15.631Z,4
2018-04-27T03:38:41.768Z,4
2018-04-27T03:39:07.904Z,4
2018-04-27T03:39:34.038Z,8
2018-04-27T03:40:00.167Z,8
2018-04-27T03:40:26.306Z,4
2018-04-27T03:40:52.442Z,8
2018-04-27T03:41:18.572Z,8
2018-04-27T03:41:44.713Z,8
2018-04-27T03:42:10.846Z,8
2018-04-27T03:42:36.991Z,12
2018-04-27T03:43:03.124Z,8
2018-04-27T03:43:29.288Z,12
2018-04-27T03:43:55.424Z,12
2018-04-27T03:44:21.564Z,12
2018-04-27T03:44:47.702Z,12
2018-04-27T03:45:13.844Z,12
2018-04-27T03:45:39.979Z,16
2018-04-27T03:46:06.121Z,12
2018-04-27T03:46:32.258Z,16
2018-04-27T03:46:58.418Z,16
2018-04-27T03:47:24.554Z,20
2018-04-27T03:47:50.695Z,20
2018-04-27T03:48:16.836Z,20
2018-04-27T03:48:42.969Z,24
2018-04-27T03:49:09.137Z,24
2018-04-27T03:49:35.278Z,24
2018-04-27T03:50:01.417Z,28
2018-04-27T03:50:27.548Z,28
2018-04-27T03:50:53.687Z,28
2018-04-27T03:51:19.824Z,32
2018-04-27T03:51:45.972Z,36
2018-04-27T03:52:12.111Z,36
2018-04-27T03:52:38.247Z,40
2018-04-27T03:53:04.411Z,44
2018-04-27T03:53:30.546Z,44
2018-04-27T03:53:56.681Z,48
2018-04-27T03:54:22.811Z,52
2018-04-27T03:54:48.954Z,56
2018-04-27T03:55:15.098Z,60
2018-04-27T03:55:41.221Z,64
2018-04-27T03:56:07.367Z,64
2018-04-27T03:56:33.499Z,72
2018-04-27T03:56:59.637Z,72
2018-04-27T03:57:25.775Z,80
2018-04-27T03:57:51.920Z,80
2018-04-27T03:58:18.048Z,84
2018-04-27T03:58:44.199Z,92
2018-04-27T03:59:10.353Z,100
2018-04-27T03:59:36.488Z,100
2018-04-27T04:00:02.627Z,108
2018-04-27T04:00:28.755Z,116
2018-04-27T04:00:54.898Z,120
2018-04-27T04:01:21.029Z,124
2018-04-27T04:01:47.161Z,132
2018-04-27T04:02:13.297Z,136
2018-04-27T04:02:39.430Z,144
2018-04-27T04:03:05.566Z,152
2018-04-27T04:03:31.730Z,160
2018-04-27T04:03:57.863Z,168
2018-04-27T04:04:24.002Z,176
2018-04-27T04:04:50.156Z,184
2018-04-27T04:05:16.294Z,192
2018-04-27T04:05:42.428Z,200
2018-04-27T04:06:08.585Z,212
2018-04-27T04:06:34.706Z,216
2018-04-27T04:07:00.849Z,228
2018-04-27T04:07:26.990Z,236
2018-04-27T04:07:53.125Z,244
2018-04-27T04:08:19.252Z,256
2018-04-27T04:08:45.392Z,264
2018-04-27T04:09:11.529Z,272
2018-04-27T04:09:37.662Z,280
2018-04-27T04:10:03.799Z,292
2018-04-27T04:10:29.940Z,304
2018-04-27T04:10:56.079Z,312
2018-04-27T04:11:22.221Z,320
2018-04-27T04:11:48.364Z,328
2018-04-27T04:12:14.497Z,340
2018-04-27T04:12:40.637Z,348
2018-04-27T04:13:06.769Z,360
2018-04-27T04:13:32.907Z,364
2018-04-27T04:13:59.038Z,376
2018-04-27T04:14:25.199Z,388
2018-04-27T04:14:51.339Z,396
2018-04-27T04:15:17.471Z,408
2018-04-27T04:15:43.607Z,416
2018-04-27T04:16:09.747Z,428
2018-04-27T04:16:35.877Z,440
2018-04-27T04:17:02.010Z,452
2018-04-27T04:17:28.147Z,464
2018-04-27T04:17:54.288Z,476
2018-04-27T04:18:20.429Z,488
2018-04-27T04:18:46.558Z,500
2018-04-27T04:19:12.733Z,512
2018-04-27T04:19:38.870Z,528
2018-04-27T04:20:05.005Z,540
2018-04-27T04:20:31.145Z,552
2018-04-27T04:20:57.271Z,564
2018-04-27T04:21:23.433Z,580
2018-04-27T04:21:49.589Z,596
2018-04-27T04:22:15.733Z,612
2018-04-27T04:22:41.868Z,628
2018-04-27T04:23:08.024Z,644
2018-04-27T04:23:34.157Z,660
2018-04-27T04:24:00.317Z,676
2018-04-27T04:24:26.456Z,692
2018-04-27T04:24:52.587Z,708
2018-04-27T04:25:18.728Z,724
2018-04-27T04:25:44.867Z,740
2018-04-27T04:26:11.005Z,756
2018-04-27T04:26:37.144Z,772
2018-04-27T04:27:03.300Z,788
2018-04-27T04:27:29.489Z,800
2018-04-27T04:27:55.628Z,820
2018-04-27T04:28:21.760Z,832
2018-04-27T04:28:47.905Z,852
2018-04-27T04:29:14.068Z,864
2018-04-27T04:29:40.216Z,880
2018-04-27T04:30:06.355Z,900
2018-04-27T04:30:32.513Z,912
2018-04-27T04:30:58.672Z,932
2018-04-27T04:31:24.813Z,948
2018-04-27T04:31:50.952Z,960
2018-04-27T04:32:17.129Z,980
2018-04-27T04:32:43.220Z,996
2018-04-27T04:33:09.361Z,1012
2018-04-27T04:33:35.498Z,1032
2018-04-27T04:34:01.630Z,1052
2018-04-27T04:34:27.792Z,1068
2018-04-27T04:34:53.925Z,1092
2018-04-27T04:35:20.062Z,1112
2018-04-27T04:35:46.193Z,1132
2018-04-27T04:36:12.338Z,1152
2018-04-27T04:36:38.504Z,1172
2018-04-27T04:37:04.644Z,1200
2018-04-27T04:37:30.811Z,1220
2018-04-27T04:37:56.976Z,1244
2018-04-27T04:38:23.218Z,1272
2018-04-27T04:38:49.271Z,1300
2018-04-27T04:39:15.408Z,1324
2018-04-27T04:39:41.564Z,1352
2018-04-27T04:40:07.725Z,1380
2018-04-27T04:40:33.864Z,1412
2018-04-27T04:40:59.997Z,1440
2018-04-27T04:41:26.130Z,1468
2018-04-27T04:41:52.269Z,1496
2018-04-27T04:42:18.435Z,1524
2018-04-27T04:42:44.573Z,1548
2018-04-27T04:43:10.702Z,1580
2018-04-27T04:43:36.836Z,1612
2018-04-27T04:44:02.994Z,1644
2018-04-27T04:44:29.133Z,1676
2018-04-27T04:44:55.270Z,1708
2018-04-27T04:45:21.434Z,1736
2018-04-27T04:45:47.567Z,1768
2018-04-27T04:46:13.705Z,1800
2018-04-27T04:46:39.843Z,1836
2018-04-27T04:47:05.980Z,1868
2018-04-27T04:47:32.135Z,1900
2018-04-27T04:47:58.297Z,1932
2018-04-27T04:48:24.453Z,1960
2018-04-27T04:48:50.618Z,1988
2018-04-27T04:49:16.777Z,2020
2018-04-27T04:49:42.938Z,2052
2018-04-27T04:50:09.097Z,2080
2018-04-27T04:50:35.258Z,2116
2018-04-27T04:51:01.397Z,2148
2018-04-27T04:51:27.533Z,2188
2018-04-27T04:51:53.669Z,2224
2018-04-27T04:52:19.894Z,2260
2018-04-27T04:52:46.033Z,2296
2018-04-27T04:53:12.132Z,2332
2018-04-27T04:53:38.289Z,2368
2018-04-27T04:54:04.428Z,2404
2018-04-27T04:54:30.564Z,2440
2018-04-27T04:54:56.707Z,2484
2018-04-27T04:55:22.867Z,2536
2018-04-27T04:55:49.025Z,2608
2018-04-27T04:56:15.186Z,2688
2018-04-27T04:56:41.330Z,2776
2018-04-27T04:57:07.467Z,2868
2018-04-27T04:57:33.610Z,2972
2018-04-27T04:57:59.735Z,3072
2018-04-27T04:58:25.879Z,3172
2018-04-27T04:58:52.010Z,3264
2018-04-27T04:59:18.170Z,3332
2018-04-27T04:59:44.310Z,3384
2018-04-27T05:00:10.470Z,3424
2018-04-27T05:00:36.608Z,3464
2018-04-27T05:01:02.744Z,3500
2018-04-27T05:01:28.904Z,3532
2018-04-27T05:01:55.061Z,3556
2018-04-27T05:02:21.224Z,3576
2018-04-27T05:02:47.466Z,3600
2018-04-27T05:03:13.526Z,3644
2018-04-27T05:03:39.665Z,3656
2018-04-27T05:04:05.802Z,3688
2018-04-27T05:04:31.937Z,3712
2018-04-27T05:04:58.064Z,3748
2018-04-27T05:05:24.203Z,3800
2018-04-27T05:05:50.344Z,3820
2018-04-27T05:06:16.480Z,3824
2018-04-27T05:06:42.616Z,3848
2018-04-27T05:07:08.751Z,3892
2018-04-27T05:07:34.918Z,3968
2018-04-27T05:08:01.055Z,4036
2018-04-27T05:08:27.199Z,4104
2018-04-27T05:08:53.332Z,4140
2018-04-27T05:09:19.471Z,4184
2018-04-27T05:09:45.605Z,4224
2018-04-27T05:10:11.742Z,4256
2018-04-27T05:10:37.986Z,4292
2018-04-27T05:11:04.021Z,4348
2018-04-27T05:11:30.183Z,4380
2018-04-27T05:11:56.320Z,4424
2018-04-27T05:12:22.458Z,4468
2018-04-27T05:12:48.600Z,4512
2018-04-27T05:13:14.742Z,4560
2018-04-27T05:13:40.875Z,4612
2018-04-27T05:14:07.009Z,4648
2018-04-27T05:14:33.142Z,4660
2018-04-27T05:14:59.286Z,4684
2018-04-27T05:15:25.416Z,4724
2018-04-27T05:15:51.553Z,4756
2018-04-27T05:16:17.689Z,4788
2018-04-27T05:16:43.828Z,4836
2018-04-27T05:17:09.985Z,4860
2018-04-27T05:17:36.131Z,4872
2018-04-27T05:18:02.266Z,4884
2018-04-27T05:18:28.426Z,4808
2018-04-27T05:18:54.566Z,4716
2018-04-27T05:19:20.700Z,4700
2018-04-27T05:19:46.841Z,4756
2018-04-27T05:20:13.003Z,4820
2018-04-27T05:20:39.189Z,4828
2018-04-27T05:21:05.324Z,4900
2018-04-27T05:21:31.468Z,5032
2018-04-27T05:21:57.628Z,5132
2018-04-27T05:22:23.763Z,5152
2018-04-27T05:22:49.901Z,5100
2018-04-27T05:23:16.037Z,5080
2018-04-27T05:23:42.178Z,5148
2018-04-27T05:24:08.305Z,5232
2018-04-27T05:24:34.488Z,5196
2018-04-27T05:25:00.650Z,5004
2018-04-27T05:25:26.814Z,5120
2018-04-27T05:25:52.945Z,5288
2018-04-27T05:26:19.080Z,5296
2018-04-27T05:26:45.219Z,5276
2018-04-27T05:27:11.361Z,5276
2018-04-27T05:27:37.497Z,5276
2018-04-27T05:28:03.636Z,5256
2018-04-27T05:28:29.766Z,5244
2018-04-27T05:28:55.914Z,5232
2018-04-27T05:29:22.046Z,5224
2018-04-27T05:29:48.260Z,5208
2018-04-27T05:30:14.367Z,5184
2018-04-27T05:30:40.534Z,5128
2018-04-27T05:31:06.666Z,5020
2018-04-27T05:31:32.804Z,4944
2018-04-27T05:31:58.935Z,4856
2018-04-27T05:32:25.081Z,4936
2018-04-27T05:32:51.221Z,5256
2018-04-27T05:33:17.359Z,5384
2018-04-27T05:33:43.493Z,5408
2018-04-27T05:34:09.656Z,5396
2018-04-27T05:34:35.789Z,5384
2018-04-27T05:35:01.930Z,5176
2018-04-27T05:35:28.093Z,5208
2018-04-27T05:35:54.229Z,5332
2018-04-27T05:36:20.370Z,5376
2018-04-27T05:36:46.507Z,5408
2018-04-27T05:37:12.669Z,5552
2018-04-27T05:37:38.804Z,5552
2018-04-27T05:38:04.947Z,5588
2018-04-27T05:38:31.081Z,5644
2018-04-27T05:38:57.216Z,5676
2018-04-27T05:39:23.355Z,5700
2018-04-27T05:39:49.483Z,5736
2018-04-27T05:40:15.627Z,5788
2018-04-27T05:40:41.810Z,5876
2018-04-27T05:41:07.896Z,5964
2018-04-27T05:41:34.030Z,6020
2018-04-27T05:42:00.172Z,6004
2018-04-27T05:42:26.307Z,6036
2018-04-27T05:42:52.443Z,6112
2018-04-27T05:43:18.578Z,6080
2018-04-27T05:43:44.715Z,6204
2018-04-27T05:44:10.861Z,6404
2018-04-27T05:44:37.030Z,6480
2018-04-27T05:45:03.223Z,6524
2018-04-27T05:45:29.358Z,6576
2018-04-27T05:45:55.499Z,6624
2018-04-27T05:46:21.634Z,6680
2018-04-27T05:46:47.768Z,6736
2018-04-27T05:47:13.904Z,6800
2018-04-27T05:47:40.047Z,6880
2018-04-27T05:48:06.185Z,6964
2018-04-27T05:48:32.321Z,7012
2018-04-27T05:48:58.505Z,7080
2018-04-27T05:49:24.670Z,7188
2018-04-27T05:49:50.825Z,7296
2018-04-27T05:50:16.961Z,7436
2018-04-27T05:50:43.103Z,7552
2018-04-27T05:51:09.263Z,7668
2018-04-27T05:51:35.423Z,7832
2018-04-27T05:52:01.562Z,7952
2018-04-27T05:52:27.696Z,7984
2018-04-27T05:52:53.861Z,7976
2018-04-27T05:53:19.991Z,7976
2018-04-27T05:53:46.130Z,8060
2018-04-27T05:54:12.264Z,8328
2018-04-27T05:54:38.407Z,8292
2018-04-27T05:55:04.541Z,8252
2018-04-27T05:55:30.742Z,8224
2018-04-27T05:55:56.840Z,8204
2018-04-27T05:56:22.984Z,8168
2018-04-27T05:56:49.118Z,8116
2018-04-27T05:57:15.284Z,8056
2018-04-27T05:57:41.422Z,7984
2018-04-27T05:58:07.585Z,7904
2018-04-27T05:58:33.721Z,7852
2018-04-27T05:58:59.859Z,7684
2018-04-27T05:59:26.018Z,7360
2018-04-27T05:59:52.152Z,7412
2018-04-27T06:00:18.293Z,7520
2018-04-27T06:00:44.424Z,7492
2018-04-27T06:01:10.569Z,7380
2018-04-27T06:01:36.702Z,7436
2018-04-27T06:02:02.872Z,7344
2018-04-27T06:02:29.024Z,7364
2018-04-27T06:02:55.165Z,7480
2018-04-27T06:03:21.301Z,7596
2018-04-27T06:03:47.442Z,7660
2018-04-27T06:04:13.584Z,7660
2018-04-27T06:04:39.735Z,7684
2018-04-27T06:05:05.858Z,7656
2018-04-27T06:05:32.002Z,7872
2018-04-27T06:05:58.133Z,7948
2018-04-27T06:06:24.269Z,8056
2018-04-27T06:06:50.407Z,8084
2018-04-27T06:07:16.549Z,8216
2018-04-27T06:07:42.687Z,8384
2018-04-27T06:08:08.826Z,8628
2018-04-27T06:08:35.366Z,8700
2018-04-27T06:09:01.499Z,8812
2018-04-27T06:09:27.647Z,8912
2018-04-27T06:09:53.788Z,9084
2018-04-27T06:10:19.927Z,9200
2018-04-27T06:10:46.065Z,9188
2018-04-27T06:11:12.202Z,9248
2018-04-27T06:11:38.362Z,9292
2018-04-27T06:12:04.530Z,9268
2018-04-27T06:12:30.661Z,9152